Terminal Aerodrome Forecast
Issued by NWS Charleston, WV

Current Version | Previous Version | Graphics & Text | Print | Product List | Glossary On
Versions: 1 2 3 4 5 6 7 8 9 10 11 12 13 14 15 16 17 18 19
000
FTUS41 KRLX 180200 AAA
TAFCRW
TAF AMD
KCRW 180213Z 1802/1824 13007G16KT P6SM SKC
     FM180330 15004KT P6SM SKC
     FM180600 00000KT P6SM SKC
     FM181600 26004KT P6SM BKN140=

USA.gov is the U.S. government's official web portal to all federal, state and local government web resources and services.